Time;durP1;ratioP1;P1;durP2;ratioP2;P2;SDS_P1;SDS_P2;PMS_P1;PMS_P2;Temp;Humidity;BMP_temperature;BMP_pressure;BME280_temperature;BME280_humidity;BME280_pressure;Samples;Min_cycle;Max_cycle;Signal;HPM_P1;HPM_P2
2023/03/08 00:01:30;;;;;;;7.90;6.40;;;8.70;42.30;;;;;;4982386;28;20225;-53
2023/03/08 00:03:56;;;;;;;10.63;6.70;;;8.60;42.40;;;;;;4986153;28;20226;-52
2023/03/08 00:06:23;;;;;;;9.70;6.55;;;8.60;43.20;;;;;;4981909;28;20222;-49
2023/03/08 00:08:49;;;;;;;9.90;6.47;;;8.70;42.80;;;;;;4991874;28;20453;-53
2023/03/08 00:11:15;;;;;;;9.87;6.77;;;8.70;42.80;;;;;;4985915;28;20441;-52
2023/03/08 00:13:41;;;;;;;8.63;6.33;;;8.60;42.90;;;;;;4982421;28;20258;-49
2023/03/08 00:16:09;;;;;;;8.87;6.60;;;8.70;42.90;;;;;;4984195;28;20533;-52
2023/03/08 00:18:36;;;;;;;9.17;6.67;;;8.80;42.90;;;;;;4988508;28;20207;-48
2023/03/08 00:21:06;;;;;;;11.30;6.80;;;8.80;42.80;;;;;;4987373;28;20472;-52
2023/03/08 00:23:31;;;;;;;10.00;6.70;;;8.70;42.90;;;;;;4989406;28;20945;-52
2023/03/08 00:25:57;;;;;;;9.97;7.10;;;8.70;43.20;;;;;;4986756;28;20449;-49
2023/03/08 00:28:23;;;;;;;9.90;6.73;;;8.60;43.20;;;;;;4990770;28;20264;-49
2023/03/08 00:30:59;;;;;;;11.20;7.33;;;8.80;43.20;;;;;;4978113;28;20218;-49
2023/03/08 00:33:25;;;;;;;12.60;7.40;;;9.00;42.90;;;;;;4985469;28;20457;-50
2023/03/08 00:36:06;;;;;;;10.70;7.00;;;9.00;42.70;;;;;;4985982;28;20457;-51
2023/03/08 00:38:34;;;;;;;8.77;7.30;;;9.00;42.70;;;;;;4990457;28;20441;-50
2023/03/08 00:41:00;;;;;;;10.30;6.90;;;8.90;42.70;;;;;;4986629;28;20528;-49
2023/03/08 00:43:26;;;;;;;11.60;7.13;;;8.70;43.00;;;;;;4991080;28;20922;-51
2023/03/08 00:45:51;;;;;;;14.27;8.50;;;8.80;43.30;;;;;;4988058;28;20230;-52
2023/03/08 00:48:17;;;;;;;9.43;7.27;;;8.70;43.30;;;;;;4989204;28;20896;-52
2023/03/08 00:50:43;;;;;;;12.53;7.43;;;8.70;43.40;;;;;;4988382;28;20975;-51
2023/03/08 00:53:09;;;;;;;9.47;6.30;;;8.50;43.50;;;;;;4988795;28;20733;-49
2023/03/08 00:55:34;;;;;;;10.50;6.70;;;8.70;43.90;;;;;;4992233;28;20459;-53
2023/03/08 00:58:00;;;;;;;9.23;6.43;;;8.80;43.50;;;;;;4988482;28;20195;-52
2023/03/08 01:00:26;;;;;;;9.17;6.83;;;8.80;43.20;;;;;;4988103;28;20198;-53
2023/03/08 01:02:51;;;;;;;11.40;6.00;;;8.40;43.70;;;;;;4992060;28;20270;-49
2023/03/08 01:05:17;;;;;;;10.27;7.27;;;8.50;43.90;;;;;;4989791;28;20209;-49
2023/03/08 01:07:42;;;;;;;11.50;6.60;;;8.40;44.20;;;;;;4987874;28;20266;-50
2023/03/08 01:10:09;;;;;;;11.00;7.20;;;8.30;44.50;;;;;;4984057;28;20713;-50
2023/03/08 01:12:35;;;;;;;11.33;7.00;;;8.20;44.60;;;;;;4991523;28;20860;-49
2023/03/08 01:15:01;;;;;;;9.67;7.07;;;8.40;44.70;;;;;;4989083;28;20454;-49
2023/03/08 01:17:27;;;;;;;21.03;7.63;;;8.40;44.50;;;;;;4987739;28;22357;-49
2023/03/08 01:19:52;;;;;;;9.00;7.03;;;8.40;44.60;;;;;;4989923;28;20441;-49
2023/03/08 01:22:18;;;;;;;11.77;7.10;;;8.30;44.70;;;;;;4984023;28;20624;-48
2023/03/08 01:24:45;;;;;;;11.97;6.73;;;8.40;44.70;;;;;;4991193;28;20326;-49
2023/03/08 01:27:10;;;;;;;9.17;7.17;;;8.20;44.80;;;;;;4986760;28;20281;-51
2023/03/08 01:29:36;;;;;;;9.67;7.30;;;8.00;45.00;;;;;;4984193;28;20446;-48
2023/03/08 01:32:01;;;;;;;10.13;8.03;;;8.00;45.30;;;;;;4979448;28;20195;-48
2023/03/08 01:34:27;;;;;;;12.20;7.97;;;8.00;45.50;;;;;;4981011;28;20763;-49
2023/03/08 01:36:53;;;;;;;11.83;7.80;;;7.90;45.40;;;;;;4989604;28;20202;-48
2023/03/08 01:39:18;;;;;;;11.83;7.03;;;7.80;45.80;;;;;;4990222;28;20220;-49
2023/03/08 01:41:44;;;;;;;12.30;7.80;;;8.00;45.70;;;;;;4987837;28;20205;-49
2023/03/08 01:44:18;;;;;;;9.93;7.40;;;7.90;45.30;;;;;;4986551;28;20893;-50
2023/03/08 01:46:43;;;;;;;10.47;7.30;;;8.10;45.40;;;;;;4985227;28;20252;-49
2023/03/08 01:49:21;;;;;;;13.20;8.90;;;8.20;45.30;;;;;;4980947;28;21257;-48
2023/03/08 01:51:57;;;;;;;11.83;8.27;;;8.70;44.90;;;;;;4984108;28;20194;-52
2023/03/08 01:54:41;;;;;;;10.30;7.40;;;8.60;44.30;;;;;;4985003;28;20467;-48
2023/03/08 01:57:31;;;;;;;12.03;8.67;;;8.70;44.30;;;;;;4981152;28;20460;-48
2023/03/08 02:00:05;;;;;;;10.60;7.70;;;8.80;44.20;;;;;;4986111;28;20498;-48
2023/03/08 02:02:37;;;;;;;13.60;8.00;;;8.90;43.80;;;;;;4983291;28;20461;-49
2023/03/08 02:05:03;;;;;;;13.03;7.33;;;9.10;43.60;;;;;;4986643;28;20442;-48
2023/03/08 02:07:29;;;;;;;12.07;7.63;;;9.00;43.40;;;;;;4976571;28;20497;-48
2023/03/08 02:09:54;;;;;;;10.47;7.70;;;9.00;43.60;;;;;;4992838;28;20284;-48
2023/03/08 02:12:20;;;;;;;11.10;7.97;;;9.10;43.40;;;;;;4986915;28;20190;-47
2023/03/08 02:14:47;;;;;;;12.50;8.47;;;8.70;43.40;;;;;;4983752;28;20202;-48
2023/03/08 02:17:12;;;;;;;9.00;7.60;;;8.50;44.10;;;;;;4989144;28;20961;-48
2023/03/08 02:19:51;;;;;;;19.00;8.13;;;8.70;44.30;;;;;;4990763;28;20445;-49
2023/03/08 02:22:18;;;;;;;8.13;6.50;;;8.80;44.10;;;;;;4984884;28;20206;-49
2023/03/08 02:24:44;;;;;;;12.00;7.20;;;9.10;43.60;;;;;;4987610;28;20438;-48
2023/03/08 02:27:15;;;;;;;11.67;7.10;;;9.40;43.00;;;;;;4989702;28;20493;-48
2023/03/08 02:29:41;;;;;;;10.33;7.47;;;9.70;42.60;;;;;;4983187;28;20798;-48
2023/03/08 02:32:07;;;;;;;10.30;7.40;;;9.80;42.10;;;;;;4982998;28;20525;-48
2023/03/08 02:34:33;;;;;;;9.33;6.53;;;9.80;41.80;;;;;;4984805;28;20207;-52
2023/03/08 02:36:59;;;;;;;10.03;6.87;;;9.80;41.70;;;;;;4982647;28;20443;-51
2023/03/08 02:39:25;;;;;;;12.43;7.60;;;9.90;41.70;;;;;;4988715;28;20453;-49
2023/03/08 02:41:50;;;;;;;9.63;6.93;;;9.80;41.50;;;;;;4988408;28;20195;-49
2023/03/08 02:44:16;;;;;;;11.13;6.87;;;9.80;41.60;;;;;;4988866;28;20800;-49
2023/03/08 02:46:41;;;;;;;13.80;8.10;;;9.70;41.50;;;;;;4981850;28;20190;-50
2023/03/08 02:49:07;;;;;;;11.70;7.90;;;9.60;41.60;;;;;;4989391;28;20205;-50
2023/03/08 02:51:33;;;;;;;10.53;7.00;;;9.60;41.80;;;;;;4984264;28;20706;-50
2023/03/08 02:53:58;;;;;;;12.37;6.90;;;9.70;41.90;;;;;;4980373;28;20198;-50
2023/03/08 02:56:24;;;;;;;11.07;6.80;;;9.80;41.70;;;;;;4982844;28;20928;-51
2023/03/08 02:58:49;;;;;;;10.10;7.10;;;10.00;40.70;;;;;;4985418;28;20261;-50
2023/03/08 03:01:15;;;;;;;8.57;6.57;;;10.00;40.50;;;;;;4978222;28;20270;-49
2023/03/08 03:03:41;;;;;;;10.30;8.10;;;10.10;40.40;;;;;;4981180;28;20230;-50
2023/03/08 03:06:15;;;;;;;16.40;7.17;;;10.10;40.20;;;;;;4988057;28;20242;-49
2023/03/08 03:08:41;;;;;;;9.00;6.50;;;10.10;40.30;;;;;;4987242;28;20596;-51
2023/03/08 03:11:18;;;;;;;9.97;6.80;;;10.00;40.30;;;;;;4979190;28;20521;-50
2023/03/08 03:13:44;;;;;;;11.40;7.13;;;10.10;40.50;;;;;;4982670;28;20210;-50
2023/03/08 03:16:12;;;;;;;8.90;6.90;;;10.00;40.40;;;;;;4985411;28;20524;-49
2023/03/08 03:18:38;;;;;;;10.30;6.67;;;10.00;40.50;;;;;;4982778;28;20453;-49
2023/03/08 03:21:05;;;;;;;10.17;6.60;;;10.00;40.40;;;;;;4976899;28;20456;-49
2023/03/08 03:23:30;;;;;;;10.03;6.57;;;10.10;40.40;;;;;;4986224;28;20198;-50
2023/03/08 03:25:56;;;;;;;11.53;7.27;;;10.10;40.30;;;;;;4982024;28;20441;-49
2023/03/08 03:28:21;;;;;;;9.97;7.50;;;10.10;40.30;;;;;;4966649;28;20298;-50
2023/03/08 03:30:47;;;;;;;10.43;6.53;;;10.10;40.30;;;;;;4987590;28;20218;-49
2023/03/08 03:33:13;;;;;;;11.90;8.07;;;10.10;40.50;;;;;;4986362;28;20194;-49
2023/03/08 03:35:39;;;;;;;14.90;7.50;;;10.10;40.60;;;;;;4988801;28;20842;-50
2023/03/08 03:38:04;;;;;;;9.60;6.90;;;9.90;41.40;;;;;;4986227;28;20272;-49
2023/03/08 03:40:30;;;;;;;11.77;7.33;;;9.90;41.60;;;;;;4981749;28;20783;-49
2023/03/08 03:42:55;;;;;;;9.70;6.87;;;9.80;41.60;;;;;;4987603;28;20186;-50
2023/03/08 03:45:21;;;;;;;9.00;6.20;;;9.90;41.50;;;;;;4986173;28;20203;-49
2023/03/08 03:47:47;;;;;;;9.00;6.60;;;10.00;40.60;;;;;;4984447;28;20227;-51
2023/03/08 03:50:12;;;;;;;12.30;7.90;;;10.00;40.50;;;;;;4978814;28;20211;-48
2023/03/08 03:52:38;;;;;;;10.90;6.23;;;10.10;40.40;;;;;;4981651;28;20257;-49
2023/03/08 03:55:04;;;;;;;11.50;6.97;;;10.10;40.30;;;;;;4982418;28;20218;-50
2023/03/08 03:57:30;;;;;;;9.63;6.30;;;10.10;40.10;;;;;;4984310;28;20203;-49
2023/03/08 03:59:55;;;;;;;12.97;6.60;;;9.80;41.40;;;;;;4986085;28;20448;-49
2023/03/08 04:02:21;;;;;;;9.17;6.70;;;9.70;41.60;;;;;;4985344;28;20198;-49
2023/03/08 04:04:49;;;;;;;10.50;7.27;;;9.30;42.20;;;;;;4981330;28;20607;-50
2023/03/08 04:07:15;;;;;;;8.10;6.03;;;9.40;43.10;;;;;;4986208;28;20640;-50
2023/03/08 04:09:40;;;;;;;11.33;7.30;;;9.60;42.20;;;;;;4987307;28;20446;-49
2023/03/08 04:12:06;;;;;;;7.57;6.10;;;9.70;41.90;;;;;;4987605;28;20249;-49
2023/03/08 04:14:32;;;;;;;9.83;6.93;;;9.70;41.80;;;;;;4985889;28;20209;-50
2023/03/08 04:16:57;;;;;;;12.37;7.07;;;9.80;41.60;;;;;;4980900;28;20574;-49
2023/03/08 04:19:23;;;;;;;11.27;7.00;;;9.70;42.20;;;;;;4982850;28;20191;-50
2023/03/08 04:21:48;;;;;;;9.70;5.90;;;9.80;41.70;;;;;;4986347;28;20596;-50
2023/03/08 04:24:14;;;;;;;9.60;6.20;;;9.80;41.70;;;;;;4984357;28;20970;-50
2023/03/08 04:26:39;;;;;;;11.93;6.93;;;9.70;41.90;;;;;;4980405;28;20572;-50
2023/03/08 04:29:05;;;;;;;9.17;6.00;;;9.70;42.00;;;;;;4985689;28;20216;-49
2023/03/08 04:31:33;;;;;;;9.60;6.67;;;9.60;42.00;;;;;;4988160;28;20214;-52
2023/03/08 04:34:00;;;;;;;9.60;7.10;;;9.40;42.40;;;;;;4977025;28;20191;-50
2023/03/08 04:36:26;;;;;;;13.07;6.53;;;9.40;42.70;;;;;;4987864;28;20450;-49
2023/03/08 04:38:51;;;;;;;9.73;7.13;;;9.50;42.50;;;;;;4979045;28;20813;-49
2023/03/08 04:41:18;;;;;;;9.17;6.40;;;9.50;42.50;;;;;;4985502;28;20214;-49
2023/03/08 04:43:49;;;;;;;10.20;7.30;;;9.50;42.50;;;;;;4981755;28;20190;-49
2023/03/08 04:46:17;;;;;;;13.53;7.90;;;9.60;42.50;;;;;;4987914;28;20576;-49
2023/03/08 04:48:42;;;;;;;10.10;7.53;;;9.60;42.30;;;;;;4987685;28;20527;-49
2023/03/08 04:51:10;;;;;;;8.63;6.17;;;9.70;42.30;;;;;;4988081;28;20971;-49
2023/03/08 04:53:37;;;;;;;11.20;7.40;;;9.60;42.20;;;;;;4989459;28;20318;-49
2023/03/08 04:56:04;;;;;;;10.27;6.50;;;9.40;42.60;;;;;;4985523;28;20478;-49
2023/03/08 04:58:30;;;;;;;9.10;7.00;;;9.30;43.00;;;;;;4986526;28;20458;-51
2023/03/08 05:00:56;;;;;;;13.63;6.73;;;9.10;43.20;;;;;;4988876;28;20442;-49
2023/03/08 05:03:22;;;;;;;9.70;7.40;;;9.20;43.30;;;;;;4975345;28;20528;-48
2023/03/08 05:05:50;;;;;;;10.50;7.00;;;9.00;43.40;;;;;;4987797;28;20574;-48
2023/03/08 05:08:18;;;;;;;9.47;7.47;;;9.10;43.40;;;;;;4989896;28;20493;-49
2023/03/08 05:10:48;;;;;;;11.07;7.43;;;9.20;43.20;;;;;;4989040;28;20445;-52
2023/03/08 05:13:14;;;;;;;10.50;7.60;;;9.20;43.20;;;;;;4973161;28;20453;-49
2023/03/08 05:15:40;;;;;;;11.43;7.50;;;9.00;43.50;;;;;;4990031;28;20457;-48
2023/03/08 05:18:05;;;;;;;13.13;7.97;;;8.70;44.00;;;;;;4983243;28;20274;-48
2023/03/08 05:20:31;;;;;;;12.27;7.90;;;8.80;44.20;;;;;;4985402;28;20542;-48
2023/03/08 05:22:57;;;;;;;10.93;7.17;;;8.90;44.20;;;;;;4992159;28;20643;-48
2023/03/08 05:25:22;;;;;;;14.73;8.30;;;9.00;43.90;;;;;;4989206;28;20202;-49
2023/03/08 05:27:48;;;;;;;11.17;7.53;;;9.40;43.60;;;;;;4973869;28;20235;-48
2023/03/08 05:30:13;;;;;;;12.07;8.10;;;9.60;43.10;;;;;;4977461;28;20198;-49
2023/03/08 05:32:39;;;;;;;11.20;6.90;;;9.80;42.60;;;;;;4987171;28;20309;-49
2023/03/08 05:35:05;;;;;;;11.10;8.00;;;9.80;42.40;;;;;;4989558;28;20190;-50
2023/03/08 05:37:30;;;;;;;12.47;8.30;;;9.80;42.40;;;;;;4989442;28;20643;-48
2023/03/08 05:39:56;;;;;;;11.33;7.50;;;9.90;42.40;;;;;;4969484;28;20667;-49
2023/03/08 05:42:21;;;;;;;11.87;7.57;;;9.90;42.30;;;;;;4989758;28;20194;-49
2023/03/08 05:44:47;;;;;;;11.10;7.30;;;9.90;42.60;;;;;;4990002;28;20830;-49
2023/03/08 05:47:13;;;;;;;10.93;7.67;;;9.90;42.80;;;;;;4988490;28;20678;-50
2023/03/08 05:49:38;;;;;;;12.27;7.33;;;9.80;42.80;;;;;;4986509;28;20278;-51
2023/03/08 05:52:04;;;;;;;14.90;8.00;;;9.70;42.90;;;;;;4988625;28;20201;-49
2023/03/08 05:54:30;;;;;;;12.73;8.70;;;9.50;43.20;;;;;;4982380;28;20580;-49
2023/03/08 05:56:55;;;;;;;11.47;7.83;;;9.60;43.30;;;;;;4972033;28;20198;-49
2023/03/08 05:59:21;;;;;;;14.47;9.27;;;9.80;43.10;;;;;;4984787;28;20414;-49
2023/03/08 06:01:46;;;;;;;11.87;7.90;;;9.90;42.80;;;;;;4987351;28;20539;-49
2023/03/08 06:04:12;;;;;;;14.27;9.20;;;9.90;42.70;;;;;;4982149;28;20337;-51
2023/03/08 06:06:38;;;;;;;14.53;9.57;;;9.90;42.70;;;;;;4985958;28;20197;-53
2023/03/08 06:09:03;;;;;;;8.83;7.30;;;10.00;41.90;;;;;;4985495;28;20574;-52
2023/03/08 06:11:29;;;;;;;11.00;8.30;;;9.70;42.90;;;;;;4985143;28;20689;-53
2023/03/08 06:13:55;;;;;;;14.20;6.60;;;9.40;43.60;;;;;;4988232;28;20203;-50
2023/03/08 06:16:20;;;;;;;9.57;6.53;;;9.30;44.60;;;;;;4982326;28;20195;-52
2023/03/08 06:18:46;;;;;;;13.27;7.47;;;9.60;47.00;;;;;;4985821;28;20201;-52
2023/03/08 06:21:14;;;;;;;10.43;7.37;;;9.90;46.50;;;;;;4987260;28;20335;-50
2023/03/08 06:23:40;;;;;;;11.83;7.53;;;10.10;43.60;;;;;;4988908;28;20238;-52
2023/03/08 06:26:07;;;;;;;14.13;8.30;;;10.10;43.60;;;;;;4976351;28;20830;-52
2023/03/08 06:28:33;;;;;;;13.70;8.20;;;9.70;43.20;;;;;;4982684;28;20493;-52
2023/03/08 06:30:59;;;;;;;17.30;8.23;;;9.50;44.10;;;;;;4986696;28;20430;-52
2023/03/08 06:33:28;;;;;;;13.93;8.87;;;9.70;44.60;;;;;;4985778;28;20438;-52
2023/03/08 06:35:59;;;;;;;9.30;7.80;;;9.70;44.40;;;;;;4985145;28;20194;-52
2023/03/08 06:38:25;;;;;;;13.33;8.63;;;10.00;43.60;;;;;;4984131;28;20451;-52
2023/03/08 06:40:51;;;;;;;10.33;7.67;;;10.30;43.30;;;;;;4984416;28;20817;-53
2023/03/08 06:43:17;;;;;;;13.03;8.03;;;10.60;42.30;;;;;;4979488;28;20446;-52
2023/03/08 06:45:43;;;;;;;13.30;8.20;;;10.40;42.00;;;;;;4985547;28;20556;-53
2023/03/08 06:48:08;;;;;;;12.23;7.63;;;10.50;42.00;;;;;;4981335;28;20569;-52
2023/03/08 06:50:34;;;;;;;9.60;7.87;;;10.70;42.00;;;;;;4989210;28;20248;-50
2023/03/08 06:53:00;;;;;;;11.60;8.10;;;10.80;41.80;;;;;;4991547;28;20195;-49
2023/03/08 06:55:26;;;;;;;13.07;7.53;;;10.60;41.60;;;;;;4987943;28;20672;-51
2023/03/08 06:57:54;;;;;;;12.97;8.03;;;10.70;41.80;;;;;;4989697;28;20222;-51
2023/03/08 07:00:21;;;;;;;11.73;8.30;;;10.60;41.40;;;;;;4981984;28;21744;-52
2023/03/08 07:02:47;;;;;;;11.40;8.17;;;10.50;42.00;;;;;;4986569;28;20482;-52
2023/03/08 07:05:14;;;;;;;13.80;8.03;;;10.40;41.80;;;;;;4990367;28;20500;-50
2023/03/08 07:07:41;;;;;;;10.03;7.57;;;10.30;42.70;;;;;;4980487;28;20482;-53
2023/03/08 07:10:09;;;;;;;8.30;6.60;;;10.20;42.50;;;;;;4991421;28;20963;-50
2023/03/08 07:12:38;;;;;;;8.97;7.10;;;10.30;42.40;;;;;;4983542;28;20544;-49
2023/03/08 07:15:08;;;;;;;9.60;6.20;;;10.40;42.00;;;;;;4979260;28;20443;-53
2023/03/08 07:17:34;;;;;;;9.93;7.20;;;10.60;42.10;;;;;;4986901;28;20473;-49
2023/03/08 07:20:00;;;;;;;9.80;7.70;;;10.80;41.50;;;;;;4984150;28;20446;-53
2023/03/08 07:22:26;;;;;;;11.03;6.90;;;11.00;41.20;;;;;;4984723;28;20449;-49
2023/03/08 07:24:51;;;;;;;7.90;6.00;;;11.10;41.40;;;;;;4990488;28;20961;-53
2023/03/08 07:27:17;;;;;;;9.27;6.90;;;11.10;40.70;;;;;;4991365;28;20297;-51
2023/03/08 07:29:42;;;;;;;10.10;7.70;;;11.20;40.90;;;;;;4986521;28;20552;-52
2023/03/08 07:32:08;;;;;;;9.13;6.60;;;11.40;40.60;;;;;;4980042;28;20199;-52
2023/03/08 07:34:34;;;;;;;10.07;8.40;;;11.40;40.10;;;;;;4982880;28;20198;-48
2023/03/08 07:36:59;;;;;;;13.03;9.30;;;11.50;40.10;;;;;;4982932;28;20240;-51
2023/03/08 07:39:25;;;;;;;13.60;9.00;;;11.50;40.00;;;;;;4984604;28;20203;-48
2023/03/08 07:41:50;;;;;;;17.37;9.50;;;11.60;40.20;;;;;;4978491;28;20285;-50
2023/03/08 07:44:16;;;;;;;11.53;8.07;;;11.70;39.90;;;;;;4975878;28;20233;-52
2023/03/08 07:46:42;;;;;;;11.60;8.80;;;11.70;39.60;;;;;;4982746;28;20206;-48
2023/03/08 07:49:09;;;;;;;11.97;8.33;;;11.80;40.30;;;;;;4980373;28;20249;-51
2023/03/08 07:51:35;;;;;;;12.17;8.50;;;11.90;39.70;;;;;;4971287;28;20326;-51
2023/03/08 07:54:01;;;;;;;14.87;8.47;;;11.80;39.50;;;;;;4971935;28;20506;-50
2023/03/08 07:56:27;;;;;;;14.87;8.50;;;11.80;39.70;;;;;;4971543;28;20422;-48
2023/03/08 07:58:56;;;;;;;12.00;7.93;;;11.90;39.60;;;;;;4972132;28;20425;-49
2023/03/08 08:01:22;;;;;;;11.77;8.17;;;11.90;39.60;;;;;;4972801;28;20227;-49
2023/03/08 08:03:48;;;;;;;11.17;8.20;;;11.40;40.00;;;;;;4981198;28;20515;-49
2023/03/08 08:06:13;;;;;;;11.17;8.63;;;11.00;41.10;;;;;;4986419;28;20466;-48
2023/03/08 08:08:39;;;;;;;10.33;8.17;;;11.00;41.70;;;;;;4990872;28;20226;-49
2023/03/08 08:11:16;;;;;;;13.70;8.60;;;10.90;42.20;;;;;;4972786;28;20203;-47
2023/03/08 08:13:41;;;;;;;10.53;7.63;;;11.20;42.40;;;;;;4971631;28;20422;-48
2023/03/08 08:16:08;;;;;;;12.33;8.83;;;11.30;42.30;;;;;;4971339;28;20929;-47
2023/03/08 08:18:34;;;;;;;11.77;8.00;;;11.50;42.20;;;;;;4971779;28;20290;-49
2023/03/08 08:21:06;;;;;;;11.10;8.30;;;11.60;41.90;;;;;;4985092;28;20484;-48
2023/03/08 08:23:32;;;;;;;12.30;8.37;;;11.80;41.60;;;;;;4993285;28;20454;-48
2023/03/08 08:25:58;;;;;;;10.60;8.43;;;11.70;41.40;;;;;;4993202;28;20438;-49
2023/03/08 08:28:25;;;;;;;12.20;8.60;;;11.60;41.50;;;;;;4994842;28;20473;-49
2023/03/08 08:31:00;;;;;;;14.80;9.57;;;11.70;41.40;;;;;;4994706;28;20627;-48
2023/03/08 08:33:27;;;;;;;12.20;7.57;;;11.70;41.30;;;;;;4994025;28;20475;-48
2023/03/08 08:35:53;;;;;;;13.33;10.13;;;11.80;41.30;;;;;;4991709;28;20500;-48
2023/03/08 08:38:19;;;;;;;12.30;8.80;;;11.80;41.30;;;;;;4991843;28;21012;-48
2023/03/08 08:40:44;;;;;;;10.57;7.73;;;11.60;41.40;;;;;;4975235;28;20650;-48
2023/03/08 08:43:10;;;;;;;9.93;7.60;;;11.60;41.90;;;;;;4974866;28;20199;-49
2023/03/08 08:45:35;;;;;;;12.43;9.23;;;11.70;42.00;;;;;;4974845;28;20241;-49
2023/03/08 08:48:01;;;;;;;12.80;8.73;;;11.80;42.40;;;;;;4975080;28;20883;-48
2023/03/08 08:50:26;;;;;;;11.40;8.90;;;11.70;42.80;;;;;;4975108;28;20202;-47
2023/03/08 08:52:52;;;;;;;15.00;9.83;;;11.60;44.10;;;;;;4972619;28;20195;-48
2023/03/08 08:55:18;;;;;;;10.43;8.60;;;11.40;45.00;;;;;;4990900;28;20203;-49
2023/03/08 08:57:43;;;;;;;13.03;9.70;;;11.30;46.10;;;;;;4994305;28;20585;-48
2023/03/08 09:00:09;;;;;;;11.90;9.00;;;11.30;46.40;;;;;;4994246;28;20190;-49
2023/03/08 09:02:35;;;;;;;16.93;9.70;;;11.40;46.80;;;;;;4993462;28;20233;-50
2023/03/08 09:05:01;;;;;;;14.20;10.00;;;11.30;47.50;;;;;;4994064;28;20473;-48
2023/03/08 09:07:26;;;;;;;13.83;10.20;;;11.50;47.30;;;;;;4982782;28;20230;-48
2023/03/08 09:09:55;;;;;;;15.13;10.37;;;11.40;47.50;;;;;;4974740;28;20622;-48
2023/03/08 09:12:21;;;;;;;13.30;10.50;;;11.50;47.50;;;;;;4990545;28;20211;-49
2023/03/08 09:14:46;;;;;;;12.10;9.80;;;11.30;47.60;;;;;;4993811;28;20969;-48
2023/03/08 09:17:12;;;;;;;13.10;9.90;;;11.30;48.00;;;;;;4993844;28;20281;-48
2023/03/08 09:19:38;;;;;;;13.07;11.00;;;11.30;48.20;;;;;;4992575;28;20203;-48
2023/03/08 09:22:04;;;;;;;15.13;10.57;;;11.40;48.50;;;;;;4993458;28;20199;-50
2023/03/08 09:24:29;;;;;;;13.30;9.73;;;11.30;48.60;;;;;;4993696;28;20186;-52
2023/03/08 09:26:55;;;;;;;14.80;10.03;;;11.60;48.50;;;;;;4993813;28;20197;-52
2023/03/08 09:29:21;;;;;;;16.13;9.97;;;11.40;48.60;;;;;;4983387;28;20329;-49
2023/03/08 09:31:46;;;;;;;14.20;10.00;;;11.20;49.00;;;;;;4973817;28;20191;-48
2023/03/08 09:34:14;;;;;;;15.70;10.50;;;11.20;49.50;;;;;;4981561;28;20190;-50
2023/03/08 09:36:40;;;;;;;20.93;10.80;;;11.00;49.80;;;;;;4986175;28;20855;-48
2023/03/08 09:39:08;;;;;;;16.00;10.60;;;11.00;50.30;;;;;;4983446;28;20462;-50
2023/03/08 09:41:47;;;;;;;14.47;10.27;;;11.10;50.50;;;;;;4983338;28;20446;-49
2023/03/08 09:44:42;;;;;;;13.70;10.03;;;11.30;50.00;;;;;;4989340;28;20473;-48
2023/03/08 09:47:40;;;;;;;14.07;10.03;;;11.20;50.10;;;;;;4982130;28;20483;-48
2023/03/08 09:50:11;;;;;;;15.93;10.43;;;10.90;51.00;;;;;;4990115;28;20450;-48
2023/03/08 09:52:44;;;;;;;14.83;12.10;;;11.00;51.30;;;;;;4987897;28;20457;-51
2023/03/08 09:55:31;;;;;;;13.37;10.33;;;11.30;51.10;;;;;;4988386;28;20720;-49
2023/03/08 09:58:16;;;;;;;13.77;9.50;;;11.20;50.90;;;;;;4985294;28;20791;-48
2023/03/08 10:00:43;;;;;;;15.80;10.53;;;11.20;51.00;;;;;;4985320;28;20854;-47
2023/03/08 10:03:45;;;;;;;14.60;10.43;;;11.20;51.00;;;;;;4985880;28;20470;-48
2023/03/08 10:06:21;;;;;;;13.50;10.07;;;11.20;51.20;;;;;;4985498;28;20462;-49
2023/03/08 10:09:33;;;;;;;13.73;9.30;;;11.30;51.20;;;;;;4976436;28;22021;-47
2023/03/08 10:12:15;;;;;;;15.50;10.20;;;11.50;50.90;;;;;;4974680;28;20480;-49
2023/03/08 10:14:49;;;;;;;16.70;10.47;;;11.60;50.80;;;;;;4983153;28;20457;-48
2023/03/08 10:17:20;;;;;;;13.50;9.60;;;11.50;50.90;;;;;;4985307;28;20448;-48
2023/03/08 10:19:49;;;;;;;12.90;10.00;;;11.50;51.70;;;;;;4987085;28;20456;-50
2023/03/08 10:22:30;;;;;;;11.03;8.60;;;11.70;51.00;;;;;;4987069;28;20533;-50
2023/03/08 10:25:15;;;;;;;12.50;9.60;;;11.90;50.90;;;;;;4987252;28;20442;-49
2023/03/08 10:27:40;;;;;;;11.47;9.10;;;11.80;50.20;;;;;;4985276;28;20497;-48
2023/03/08 10:30:14;;;;;;;11.77;9.13;;;12.00;50.10;;;;;;4982501;28;20445;-48
2023/03/08 10:32:44;;;;;;;16.50;10.73;;;12.30;49.50;;;;;;4986868;28;20198;-51
2023/03/08 10:35:10;;;;;;;10.67;9.10;;;12.60;48.90;;;;;;4977516;28;20462;-49
2023/03/08 10:37:36;;;;;;;14.23;9.17;;;12.70;48.20;;;;;;4981447;28;20809;-48
2023/03/08 10:40:07;;;;;;;12.93;8.83;;;12.70;48.20;;;;;;4975426;28;20342;-51
2023/03/08 10:42:34;;;;;;;14.60;11.30;;;12.80;48.00;;;;;;4973462;28;20203;-47
2023/03/08 10:45:23;;;;;;;10.23;7.80;;;12.70;48.40;;;;;;4979981;28;20446;-48
2023/03/08 10:48:00;;;;;;;7.73;6.03;;;12.50;49.60;;;;;;4986289;28;20500;-49
2023/03/08 10:50:29;;;;;;;7.50;6.10;;;11.80;52.00;;;;;;4982838;28;21097;-49
2023/03/08 10:52:55;;;;;;;11.03;7.13;;;11.70;52.40;;;;;;4982225;28;20442;-52
2023/03/08 10:55:28;;;;;;;6.70;5.50;;;11.80;52.80;;;;;;4982222;28;20537;-49
2023/03/08 10:58:01;;;;;;;11.50;5.23;;;11.70;53.10;;;;;;4985333;28;20875;-49
2023/03/08 11:00:50;;;;;;;8.90;5.83;;;12.00;53.10;;;;;;4985247;28;20473;-48
2023/03/08 11:03:21;;;;;;;8.37;5.10;;;11.90;53.40;;;;;;4985832;28;20499;-49
2023/03/08 11:06:00;;;;;;;9.30;5.60;;;11.80;53.90;;;;;;4988844;28;20446;-50
2023/03/08 11:08:31;;;;;;;9.00;5.50;;;12.20;53.80;;;;;;4986774;28;20489;-49
2023/03/08 11:11:15;;;;;;;6.73;5.00;;;12.30;53.70;;;;;;4986634;28;20825;-52
2023/03/08 11:13:45;;;;;;;6.77;4.20;;;12.40;53.90;;;;;;4980591;28;20446;-50
2023/03/08 11:16:36;;;;;;;4.53;4.13;;;12.30;54.60;;;;;;4988213;28;20454;-49
2023/03/08 11:19:05;;;;;;;4.43;3.70;;;12.40;55.20;;;;;;4986304;28;20458;-49
2023/03/08 11:21:49;;;;;;;4.83;3.00;;;12.40;55.50;;;;;;4985665;28;20462;-49
2023/03/08 11:24:17;;;;;;;4.53;2.60;;;12.40;55.80;;;;;;4981166;28;20461;-48
2023/03/08 11:27:21;;;;;;;6.57;2.50;;;12.50;56.20;;;;;;4983110;28;20560;-48
2023/03/08 11:29:50;;;;;;;2.70;2.40;;;12.50;56.60;;;;;;4982762;28;20522;-49
2023/03/08 11:32:46;;;;;;;3.13;1.87;;;12.50;57.00;;;;;;4988191;28;20464;-49
2023/03/08 11:35:34;;;;;;;2.23;2.03;;;12.50;57.50;;;;;;4982913;28;20962;-49
2023/03/08 11:38:20;;;;;;;1.80;1.40;;;12.60;57.50;;;;;;4986369;28;20450;-48
2023/03/08 11:40:53;;;;;;;1.47;1.37;;;12.70;57.30;;;;;;4970952;28;20889;-52
2023/03/08 11:43:41;;;;;;;1.53;1.20;;;12.70;57.50;;;;;;4976322;28;20465;-49
2023/03/08 11:46:22;;;;;;;1.50;1.40;;;12.70;57.50;;;;;;4945107;28;20942;-48
2023/03/08 11:48:55;;;;;;;2.57;1.60;;;12.90;57.60;;;;;;4984255;28;20481;-51
2023/03/08 11:51:49;;;;;;;1.63;1.33;;;13.30;57.10;;;;;;4986369;28;20446;-49
2023/03/08 11:54:38;;;;;;;1.97;1.40;;;13.30;56.80;;;;;;4985541;28;20508;-49
2023/03/08 11:57:12;;;;;;;2.90;1.57;;;13.20;57.00;;;;;;4974804;28;20450;-53
2023/03/08 11:59:55;;;;;;;1.40;1.30;;;13.50;57.00;;;;;;4985241;28;20485;-50
2023/03/08 12:02:28;;;;;;;1.60;0.90;;;13.50;56.50;;;;;;4988540;28;20445;-48
2023/03/08 12:05:02;;;;;;;1.60;1.00;;;13.50;56.50;;;;;;4988716;28;20477;-49
2023/03/08 12:07:37;;;;;;;3.30;1.10;;;13.70;56.50;;;;;;4986713;28;20485;-52
2023/03/08 12:10:14;;;;;;;1.30;1.00;;;13.80;56.40;;;;;;4989839;28;20457;-49
2023/03/08 12:12:52;;;;;;;1.87;1.33;;;13.90;56.20;;;;;;4989509;28;20917;-48
2023/03/08 12:15:27;;;;;;;4.23;1.30;;;13.80;56.30;;;;;;4990922;28;20445;-47
2023/03/08 12:18:00;;;;;;;1.80;1.50;;;13.90;56.10;;;;;;4987262;28;20448;-47
2023/03/08 12:20:33;;;;;;;1.10;1.00;;;13.60;56.20;;;;;;4987529;28;20446;-48
2023/03/08 12:23:23;;;;;;;2.33;1.70;;;13.80;56.40;;;;;;4983783;28;20446;-47
2023/03/08 12:26:03;;;;;;;1.47;1.07;;;13.90;56.30;;;;;;4989015;28;20446;-48
2023/03/08 12:28:35;;;;;;;1.70;1.00;;;13.90;56.00;;;;;;4989874;28;20501;-48
2023/03/08 12:31:21;;;;;;;1.20;1.10;;;13.80;56.30;;;;;;4986402;28;20512;-48
2023/03/08 12:33:47;;;;;;;1.50;1.40;;;13.80;56.70;;;;;;4992250;28;20454;-49
2023/03/08 12:36:13;;;;;;;1.50;1.40;;;13.90;56.40;;;;;;4986355;28;20442;-47
2023/03/08 12:38:45;;;;;;;2.10;1.50;;;14.00;56.50;;;;;;4988987;28;20453;-47
2023/03/08 12:41:37;;;;;;;1.60;1.50;;;14.00;56.50;;;;;;4991184;28;20671;-49
2023/03/08 12:44:26;;;;;;;1.00;1.00;;;13.80;56.80;;;;;;4981172;28;20449;-48
2023/03/08 12:46:58;;;;;;;1.53;1.00;;;13.80;57.00;;;;;;4993097;28;20503;-47
2023/03/08 12:49:33;;;;;;;1.50;1.07;;;14.00;56.90;;;;;;4990381;28;20781;-48
2023/03/08 12:52:19;;;;;;;6.10;1.40;;;14.10;56.50;;;;;;4981858;28;21056;-48
2023/03/08 12:54:59;;;;;;;2.00;1.37;;;14.10;56.60;;;;;;4962853;28;20472;-45